createdAt,value
2019-06-20T00:00:51.928Z,16.70
2019-06-20T00:03:20.668Z,16.60
2019-06-20T00:05:49.464Z,16.60
2019-06-20T00:08:18.118Z,16.60
2019-06-20T00:10:46.784Z,16.40
2019-06-20T00:13:15.490Z,16.30
2019-06-20T00:15:44.111Z,16.40
2019-06-20T00:18:12.776Z,16.10
2019-06-20T00:20:41.439Z,16.00
2019-06-20T00:23:10.047Z,16.00
2019-06-20T00:25:38.677Z,16.20
2019-06-20T00:28:07.322Z,16.20
2019-06-20T00:30:36.022Z,16.20
2019-06-20T00:33:04.694Z,16.20
2019-06-20T00:35:33.390Z,16.20
2019-06-20T00:38:02.111Z,16.20
2019-06-20T00:40:30.848Z,16.10
2019-06-20T00:42:59.563Z,16.20
2019-06-20T00:45:28.273Z,16.20
2019-06-20T00:47:56.857Z,16.20
2019-06-20T00:50:25.923Z,16.30
2019-06-20T00:52:54.560Z,16.40
2019-06-20T00:55:23.311Z,16.50
2019-06-20T00:57:51.956Z,16.60
2019-06-20T01:00:20.856Z,16.60
2019-06-20T01:02:49.602Z,16.70
2019-06-20T01:05:18.313Z,16.60
2019-06-20T01:07:46.965Z,16.60
2019-06-20T01:10:17.357Z,16.60
2019-06-20T01:12:45.916Z,16.70
2019-06-20T01:15:14.845Z,16.70
2019-06-20T01:17:43.677Z,16.70
2019-06-20T01:20:12.973Z,16.70
2019-06-20T01:22:41.555Z,16.70
2019-06-20T01:25:10.945Z,16.50
2019-06-20T01:27:41.672Z,16.50
2019-06-20T01:30:12.468Z,16.40
2019-06-20T01:32:41.117Z,16.40
2019-06-20T01:35:10.517Z,16.40
2019-06-20T01:37:39.147Z,16.50
2019-06-20T01:40:07.983Z,16.50
2019-06-20T01:42:36.692Z,16.60
2019-06-20T01:45:08.937Z,16.60
2019-06-20T01:47:37.937Z,16.60
2019-06-20T01:50:07.245Z,16.70
2019-06-20T01:52:35.891Z,16.70
2019-06-20T01:55:06.342Z,16.70
2019-06-20T01:57:35.043Z,16.70
2019-06-20T02:00:05.488Z,16.80
2019-06-20T02:02:35.158Z,16.70
2019-06-20T02:05:06.364Z,16.70
2019-06-20T02:07:35.274Z,16.70
2019-06-20T02:10:05.475Z,16.70
2019-06-20T02:12:34.112Z,16.70
2019-06-20T02:15:02.826Z,16.70
2019-06-20T02:17:31.433Z,16.70
2019-06-20T02:20:00.078Z,16.70
2019-06-20T02:22:28.725Z,16.60
2019-06-20T02:24:57.306Z,16.70
2019-06-20T02:27:25.867Z,16.70
2019-06-20T02:29:54.442Z,16.70
2019-06-20T02:32:23.115Z,16.80
2019-06-20T02:34:51.681Z,16.80
2019-06-20T02:37:20.263Z,16.70
2019-06-20T02:39:48.928Z,16.70
2019-06-20T02:42:17.552Z,16.60
2019-06-20T02:44:46.195Z,16.60
2019-06-20T02:47:14.932Z,16.60
2019-06-20T02:49:43.587Z,16.60
2019-06-20T02:52:12.693Z,16.50
2019-06-20T02:54:41.370Z,16.50
2019-06-20T02:57:10.006Z,16.40
2019-06-20T02:59:38.671Z,16.30
2019-06-20T03:02:07.280Z,16.20
2019-06-20T03:04:36.245Z,16.20
2019-06-20T03:07:04.961Z,16.20
2019-06-20T03:09:33.626Z,16.30
2019-06-20T03:12:02.191Z,16.40
2019-06-20T03:14:44.638Z,16.50
2019-06-20T03:17:01.069Z,16.60
2019-06-20T03:19:29.631Z,16.60
2019-06-20T03:21:58.194Z,16.60
2019-06-20T03:24:26.797Z,16.50
2019-06-20T03:26:55.355Z,16.50
2019-06-20T03:29:23.989Z,16.60
2019-06-20T03:31:52.649Z,16.70
2019-06-20T03:34:21.287Z,16.70
2019-06-20T03:36:50.133Z,16.80
2019-06-20T03:39:18.861Z,16.80
2019-06-20T03:41:47.417Z,16.80
2019-06-20T03:44:16.050Z,16.80
2019-06-20T03:46:44.793Z,16.90
2019-06-20T03:49:13.383Z,16.90
2019-06-20T03:51:42.167Z,17.00
2019-06-20T03:54:10.837Z,16.90
2019-06-20T03:56:39.480Z,16.90
2019-06-20T03:59:08.057Z,16.90
2019-06-20T04:01:36.727Z,16.90
2019-06-20T04:04:05.286Z,16.90
2019-06-20T04:06:33.922Z,16.90
2019-06-20T04:09:02.683Z,16.90
2019-06-20T04:11:31.251Z,16.90
2019-06-20T04:14:00.222Z,16.90
2019-06-20T04:16:28.967Z,16.90
2019-06-20T04:18:57.526Z,16.90
2019-06-20T04:21:26.241Z,17.00
2019-06-20T04:23:54.916Z,17.00
2019-06-20T04:26:23.550Z,17.10
2019-06-20T04:28:52.114Z,17.10
2019-06-20T04:31:20.943Z,17.10
2019-06-20T04:33:49.508Z,17.20
2019-06-20T04:36:37.515Z,17.30
2019-06-20T04:39:18.686Z,17.30
2019-06-20T04:41:37.974Z,17.40
2019-06-20T04:44:06.716Z,17.60
2019-06-20T04:46:52.102Z,17.70
2019-06-20T04:49:20.844Z,17.70
2019-06-20T04:51:49.475Z,17.80
2019-06-20T04:54:18.133Z,17.90
2019-06-20T04:56:46.861Z,18.00
2019-06-20T04:59:15.591Z,18.10
2019-06-20T05:01:44.334Z,18.00
2019-06-20T05:04:12.928Z,17.90
2019-06-20T05:06:42.626Z,17.80
2019-06-20T05:09:11.381Z,17.70
2019-06-20T05:11:40.150Z,17.70
2019-06-20T05:14:08.852Z,17.60
2019-06-20T05:16:37.564Z,17.60
2019-06-20T05:19:06.321Z,17.60
2019-06-20T05:21:34.950Z,17.50
2019-06-20T05:24:04.074Z,17.50
2019-06-20T05:26:32.826Z,17.60
2019-06-20T05:29:04.606Z,17.60
2019-06-20T05:31:31.817Z,17.60
2019-06-20T05:34:00.490Z,17.60
2019-06-20T05:36:29.142Z,17.60
2019-06-20T05:38:57.716Z,17.60
2019-06-20T05:41:26.313Z,17.60
2019-06-20T05:43:54.888Z,17.60
2019-06-20T05:46:23.528Z,17.60
2019-06-20T05:48:52.289Z,17.60
2019-06-20T05:51:20.899Z,17.70
2019-06-20T05:53:49.616Z,17.90
2019-06-20T05:56:18.283Z,17.90
2019-06-20T05:58:46.920Z,17.80
2019-06-20T06:01:15.612Z,17.70
2019-06-20T06:03:44.275Z,17.50
2019-06-20T06:06:12.912Z,17.50
2019-06-20T06:08:41.473Z,17.40
2019-06-20T06:11:10.409Z,17.50
2019-06-20T06:13:40.302Z,17.50
2019-06-20T06:16:25.138Z,17.50
2019-06-20T06:18:39.297Z,17.70
2019-06-20T06:21:08.162Z,18.00
2019-06-20T06:23:36.874Z,18.00
2019-06-20T06:26:05.723Z,18.10
2019-06-20T06:28:34.274Z,18.10
2019-06-20T06:31:02.975Z,18.20
2019-06-20T06:33:31.649Z,18.40
2019-06-20T06:36:00.322Z,18.50
2019-06-20T06:38:29.010Z,18.50
2019-06-20T06:40:57.795Z,18.50
2019-06-20T06:43:26.373Z,18.50
2019-06-20T06:45:55.074Z,18.40
2019-06-20T06:48:23.751Z,18.30
2019-06-20T06:50:52.399Z,18.40
2019-06-20T06:53:21.039Z,18.50
2019-06-20T06:55:51.021Z,19.00
2019-06-20T06:58:19.574Z,19.70
2019-06-20T07:00:48.353Z,20.30
2019-06-20T07:03:17.091Z,20.90
2019-06-20T07:05:45.858Z,21.50
2019-06-20T07:08:14.497Z,22.10
2019-06-20T07:10:44.555Z,22.70
2019-06-20T07:13:13.196Z,23.10
2019-06-20T07:15:41.968Z,23.50
2019-06-20T07:18:10.703Z,23.30
2019-06-20T07:20:39.346Z,23.60
2019-06-20T07:23:07.915Z,23.70
2019-06-20T07:25:36.649Z,23.60
2019-06-20T07:28:05.378Z,24.20
2019-06-20T07:30:34.005Z,24.70
2019-06-20T07:33:02.756Z,24.70
2019-06-20T07:35:31.418Z,25.50
2019-06-20T07:38:00.045Z,25.70
2019-06-20T07:40:28.829Z,25.80
2019-06-20T07:42:57.822Z,26.30
2019-06-20T07:45:27.692Z,26.30
2019-06-20T07:47:56.777Z,25.90
2019-06-20T07:50:25.484Z,25.50
2019-06-20T07:53:02.120Z,25.60
2019-06-20T07:55:24.607Z,25.60
2019-06-20T07:57:53.309Z,25.40
2019-06-20T08:00:22.436Z,25.60
2019-06-20T08:02:51.580Z,25.60
2019-06-20T08:05:20.555Z,25.70
2019-06-20T08:07:50.113Z,25.50
2019-06-20T08:10:20.370Z,25.30
2019-06-20T08:12:49.109Z,24.30
2019-06-20T08:15:19.854Z,24.20
2019-06-20T08:17:48.491Z,24.40
2019-06-20T08:20:18.968Z,24.40
2019-06-20T08:22:47.671Z,24.20
2019-06-20T08:25:17.023Z,24.90
2019-06-20T08:27:57.147Z,26.00
2019-06-20T08:30:33.890Z,26.30
2019-06-20T08:33:07.443Z,25.90
2019-06-20T08:35:34.345Z,25.20
2019-06-20T08:38:04.115Z,24.90
2019-06-20T08:40:36.489Z,24.70
2019-06-20T08:43:06.313Z,24.40
2019-06-20T08:45:36.032Z,23.60
2019-06-20T08:48:05.047Z,23.30
2019-06-20T08:50:33.744Z,23.00
2019-06-20T08:53:03.649Z,23.10
2019-06-20T08:55:32.438Z,23.10
2019-06-20T08:58:01.736Z,23.10
2019-06-20T09:00:32.854Z,23.30
2019-06-20T09:05:31.239Z,25.50
2019-06-20T09:10:38.509Z,26.40
2019-06-20T09:13:07.544Z,26.60
2019-06-20T09:15:36.467Z,26.90
2019-06-20T09:18:06.378Z,27.20
2019-06-20T09:20:35.800Z,27.70
2019-06-20T09:23:05.309Z,27.20
2019-06-20T09:25:34.108Z,27.00
2019-06-20T09:28:03.444Z,26.70
2019-06-20T09:30:32.396Z,26.90
2019-06-20T09:33:01.105Z,26.40
2019-06-20T09:35:29.834Z,26.70
2019-06-20T09:37:59.329Z,26.90
2019-06-20T09:40:28.079Z,26.60
2019-06-20T09:42:56.813Z,26.60
2019-06-20T09:45:25.803Z,25.90
2019-06-20T09:47:55.931Z,26.00
2019-06-20T09:50:25.652Z,26.40
2019-06-20T09:52:54.890Z,26.80
2019-06-20T09:55:24.739Z,27.00
2019-06-20T09:57:53.731Z,27.20
2019-06-20T10:00:25.118Z,28.10
2019-06-20T10:02:55.703Z,28.50
2019-06-20T10:05:24.426Z,28.00
2019-06-20T10:07:54.388Z,27.40
2019-06-20T10:10:29.106Z,26.70
2019-06-20T10:12:58.312Z,25.90
2019-06-20T10:15:29.243Z,25.20
2019-06-20T10:17:58.673Z,24.60
2019-06-20T10:20:28.562Z,24.00
2019-06-20T10:22:57.562Z,23.80
2019-06-20T10:25:26.318Z,25.40
2019-06-20T10:27:55.015Z,26.40
2019-06-20T10:30:24.726Z,26.80
2019-06-20T10:32:54.576Z,26.90
2019-06-20T10:35:23.295Z,26.50
2019-06-20T10:37:52.997Z,26.10
2019-06-20T10:40:23.928Z,26.60
2019-06-20T10:42:53.083Z,27.40
2019-06-20T10:45:24.244Z,28.10
2019-06-20T10:47:53.360Z,27.90
2019-06-20T10:50:22.998Z,28.20
2019-06-20T10:52:52.031Z,29.00
2019-06-20T10:55:20.932Z,29.30
2019-06-20T10:57:50.012Z,29.80
2019-06-20T11:00:30.398Z,30.10
2019-06-20T11:02:51.218Z,30.40
2019-06-20T11:05:20.599Z,30.20
2019-06-20T11:07:50.026Z,29.50
2019-06-20T11:10:19.476Z,29.50
2019-06-20T11:12:54.846Z,28.90
2019-06-20T11:15:19.654Z,28.50
2019-06-20T11:17:49.281Z,29.30
2019-06-20T11:20:19.777Z,29.60
2019-06-20T11:22:48.482Z,29.70
2019-06-20T11:25:19.326Z,30.40
2019-06-20T11:27:48.021Z,30.80
2019-06-20T11:30:19.283Z,31.20
2019-06-20T11:32:48.822Z,31.00
2019-06-20T11:35:17.950Z,30.40
2019-06-20T11:37:47.296Z,30.10
2019-06-20T11:40:16.578Z,30.00
2019-06-20T11:42:46.716Z,30.00
2019-06-20T11:45:15.918Z,30.30
2019-06-20T11:47:44.654Z,30.60
2019-06-20T11:50:13.457Z,30.20
2019-06-20T11:52:44.292Z,29.80
2019-06-20T11:55:14.265Z,29.90
2019-06-20T11:57:42.987Z,29.70
2019-06-20T12:00:12.560Z,29.40
2019-06-20T12:02:42.794Z,29.40
2019-06-20T12:05:12.402Z,29.20
2019-06-20T12:07:41.642Z,28.70
2019-06-20T12:10:13.262Z,28.60
2019-06-20T12:12:42.602Z,28.60
2019-06-20T12:15:14.136Z,28.70
2019-06-20T12:17:43.413Z,29.10
2019-06-20T12:20:13.735Z,29.30
2019-06-20T12:22:43.243Z,29.20
2019-06-20T12:25:14.417Z,29.10
2019-06-20T12:27:43.341Z,29.30
2019-06-20T12:30:14.686Z,29.30
2019-06-20T12:32:44.612Z,29.20
2019-06-20T12:35:14.113Z,28.70
2019-06-20T12:37:45.184Z,28.60
2019-06-20T12:40:16.212Z,28.70
2019-06-20T12:42:44.966Z,28.60
2019-06-20T12:45:15.698Z,28.60
2019-06-20T12:47:45.885Z,28.80
2019-06-20T12:50:35.718Z,28.90
2019-06-20T12:53:17.001Z,28.90
2019-06-20T12:55:45.929Z,28.70
2019-06-20T12:58:14.478Z,28.80
2019-06-20T13:00:44.815Z,28.30
2019-06-20T13:03:13.581Z,27.90
2019-06-20T13:05:43.273Z,28.00
2019-06-20T13:08:13.677Z,28.00
2019-06-20T13:10:43.939Z,28.20
2019-06-20T13:13:13.121Z,28.30
2019-06-20T13:15:42.504Z,28.50
2019-06-20T13:18:11.219Z,28.40
2019-06-20T13:20:40.643Z,28.60
2019-06-20T13:23:09.849Z,28.60
2019-06-20T13:25:39.553Z,28.70
2019-06-20T13:28:08.849Z,28.90
2019-06-20T13:30:38.509Z,28.80
2019-06-20T13:33:07.939Z,28.60
2019-06-20T13:35:36.698Z,28.60
2019-06-20T13:38:05.448Z,28.60
2019-06-20T13:40:34.247Z,28.40
2019-06-20T13:43:02.963Z,28.10
2019-06-20T13:45:31.714Z,27.70
2019-06-20T13:48:00.346Z,27.60
2019-06-20T13:50:29.054Z,27.40
2019-06-20T13:52:57.871Z,27.20
2019-06-20T13:55:26.802Z,27.20
2019-06-20T13:57:55.506Z,27.10
2019-06-20T14:00:25.154Z,27.10
2019-06-20T14:02:54.080Z,27.30
2019-06-20T14:05:22.756Z,27.50
2019-06-20T14:07:55.411Z,27.70
2019-06-20T14:10:22.066Z,27.80
2019-06-20T14:12:50.784Z,27.80
2019-06-20T14:15:19.945Z,27.70
2019-06-20T14:17:50.831Z,27.60
2019-06-20T14:20:19.616Z,27.30
2019-06-20T14:22:49.638Z,27.00
2019-06-20T14:25:18.925Z,26.60
2019-06-20T14:27:48.972Z,26.40
2019-06-20T14:30:18.321Z,26.10
2019-06-20T14:32:47.210Z,25.90
2019-06-20T14:35:16.999Z,25.80
2019-06-20T14:37:47.291Z,25.70
2019-06-20T14:40:16.312Z,25.80
2019-06-20T14:42:45.927Z,25.80
2019-06-20T14:45:14.990Z,25.90
2019-06-20T14:47:45.073Z,25.70
2019-06-20T14:50:14.689Z,25.90
2019-06-20T14:52:44.575Z,26.10
2019-06-20T14:55:14.696Z,26.20
2019-06-20T14:57:44.660Z,26.20
2019-06-20T15:00:14.680Z,25.90
2019-06-20T15:02:43.745Z,26.00
2019-06-20T15:05:18.913Z,26.00
2019-06-20T15:07:49.431Z,26.00
2019-06-20T15:10:18.317Z,25.60
2019-06-20T15:12:48.391Z,25.30
2019-06-20T15:15:17.933Z,25.30
2019-06-20T15:17:47.488Z,25.40
2019-06-20T15:20:19.045Z,24.90
2019-06-20T15:22:49.303Z,24.90
2019-06-20T15:25:18.044Z,25.00
2019-06-20T15:27:48.089Z,25.00
2019-06-20T15:30:17.792Z,25.10
2019-06-20T15:33:00.790Z,25.10
2019-06-20T15:35:17.368Z,25.20
2019-06-20T15:37:46.643Z,25.20
2019-06-20T15:40:16.505Z,25.20
2019-06-20T15:42:45.204Z,25.20
2019-06-20T15:45:14.153Z,25.30
2019-06-20T15:47:42.856Z,25.30
2019-06-20T15:50:12.507Z,25.40
2019-06-20T15:52:41.641Z,25.50
2019-06-20T15:55:11.139Z,25.50
2019-06-20T15:57:40.116Z,25.50
2019-06-20T16:00:10.016Z,25.50
2019-06-20T16:02:38.717Z,25.60
2019-06-20T16:05:07.939Z,25.40
2019-06-20T16:07:36.995Z,25.40
2019-06-20T16:10:06.905Z,25.20
2019-06-20T16:12:35.596Z,25.00
2019-06-20T16:15:06.659Z,24.80
2019-06-20T16:17:35.333Z,24.80
2019-06-20T16:20:05.425Z,24.80
2019-06-20T16:22:34.169Z,24.80
2019-06-20T16:25:02.825Z,24.70
2019-06-20T16:27:31.551Z,24.40
2019-06-20T16:30:00.208Z,24.30
2019-06-20T16:32:28.845Z,24.20
2019-06-20T16:34:57.480Z,24.10
2019-06-20T16:37:26.159Z,23.90
2019-06-20T16:39:56.388Z,23.80
2019-06-20T16:42:24.981Z,23.60
2019-06-20T16:44:54.944Z,23.50
2019-06-20T16:47:23.589Z,23.20
2019-06-20T16:49:52.149Z,22.90
2019-06-20T16:52:40.191Z,22.50
2019-06-20T16:55:09.952Z,22.20
2019-06-20T16:57:38.663Z,22.00
2019-06-20T17:00:11.708Z,21.90
2019-06-20T17:02:40.413Z,21.90
2019-06-20T17:05:10.633Z,21.80
2019-06-20T17:07:39.282Z,21.50
2019-06-20T17:10:08.276Z,20.90
2019-06-20T17:12:37.005Z,20.40
2019-06-20T17:15:07.827Z,20.20
2019-06-20T17:17:36.527Z,19.80
2019-06-20T17:20:07.001Z,19.60
2019-06-20T17:22:35.700Z,19.40
2019-06-20T17:25:08.468Z,19.40
2019-06-20T17:27:37.110Z,19.60
2019-06-20T17:30:08.794Z,19.60
2019-06-20T17:32:37.519Z,19.60
2019-06-20T17:35:08.324Z,19.40
2019-06-20T17:37:37.198Z,19.30
2019-06-20T17:40:08.853Z,19.20
2019-06-20T17:42:37.677Z,19.30
2019-06-20T17:45:07.483Z,19.40
2019-06-20T17:47:36.212Z,19.40
2019-06-20T17:50:07.301Z,19.40
2019-06-20T17:52:36.061Z,19.30
2019-06-20T17:55:07.223Z,19.30
2019-06-20T17:57:36.045Z,19.30
2019-06-20T18:00:07.531Z,19.10
2019-06-20T18:02:36.378Z,18.90
2019-06-20T18:05:07.063Z,18.70
2019-06-20T18:07:35.800Z,18.90
2019-06-20T18:10:09.913Z,18.70
2019-06-20T18:12:38.616Z,18.80
2019-06-20T18:15:08.676Z,18.80
2019-06-20T18:17:37.321Z,18.80
2019-06-20T18:20:07.138Z,18.70
2019-06-20T18:22:35.806Z,18.80
2019-06-20T18:25:06.027Z,18.80
2019-06-20T18:27:34.728Z,18.80
2019-06-20T18:30:04.997Z,18.60
2019-06-20T18:32:33.772Z,18.60
2019-06-20T18:35:02.810Z,18.60
2019-06-20T18:37:31.994Z,18.60
2019-06-20T18:40:00.997Z,18.60
2019-06-20T18:42:29.773Z,18.30
2019-06-20T18:44:58.449Z,18.40
2019-06-20T18:47:27.159Z,18.40
2019-06-20T18:49:55.879Z,18.50
2019-06-20T18:52:24.622Z,18.60
2019-06-20T18:54:53.409Z,18.70
2019-06-20T18:57:22.107Z,18.80
2019-06-20T18:59:50.867Z,18.80
2019-06-20T19:02:19.579Z,18.70
2019-06-20T19:04:50.831Z,18.80
2019-06-20T19:07:18.761Z,18.80
2019-06-20T19:09:47.854Z,18.60
2019-06-20T19:12:16.737Z,18.50
2019-06-20T19:14:45.438Z,18.40
2019-06-20T19:17:14.866Z,18.30
2019-06-20T19:19:43.527Z,18.30
2019-06-20T19:22:12.298Z,18.20
2019-06-20T19:24:40.946Z,18.10
2019-06-20T19:27:09.643Z,18.10
2019-06-20T19:29:38.416Z,18.00
2019-06-20T19:32:07.013Z,17.90
2019-06-20T19:34:35.657Z,17.90
2019-06-20T19:37:04.820Z,17.90
2019-06-20T19:39:33.636Z,17.80
2019-06-20T19:42:02.335Z,17.90
2019-06-20T19:44:31.023Z,17.90
2019-06-20T19:46:59.866Z,17.90
2019-06-20T19:49:28.592Z,18.00
2019-06-20T19:51:57.339Z,18.00
2019-06-20T19:54:26.047Z,18.00
2019-06-20T19:56:54.765Z,17.90
2019-06-20T19:59:23.521Z,17.80
2019-06-20T20:01:52.220Z,17.70
2019-06-20T20:04:20.937Z,17.60
2019-06-20T20:06:49.699Z,17.60
2019-06-20T20:09:18.631Z,17.50
2019-06-20T20:11:47.259Z,17.40
2019-06-20T20:14:15.940Z,17.40
2019-06-20T20:16:44.663Z,17.40
2019-06-20T20:19:13.320Z,17.40
2019-06-20T20:21:41.933Z,17.40
2019-06-20T20:24:10.509Z,17.30
2019-06-20T20:26:39.171Z,17.20
2019-06-20T20:29:07.845Z,17.20
2019-06-20T20:31:36.450Z,17.20
2019-06-20T20:34:05.251Z,17.20
2019-06-20T20:36:33.925Z,17.30
2019-06-20T20:39:02.506Z,17.20
2019-06-20T20:41:31.216Z,17.30
2019-06-20T20:43:59.891Z,17.30
2019-06-20T20:46:28.475Z,17.30
2019-06-20T20:48:57.260Z,17.30
2019-06-20T20:51:25.899Z,17.30
2019-06-20T20:53:54.911Z,17.20
2019-06-20T20:56:23.624Z,17.20
2019-06-20T20:58:52.373Z,17.10
2019-06-20T21:01:30.139Z,17.10
2019-06-20T21:04:00.366Z,17.10
2019-06-20T21:06:29.613Z,17.20
2019-06-20T21:08:58.204Z,17.20
2019-06-20T21:11:26.883Z,17.20
2019-06-20T21:13:55.637Z,17.30
2019-06-20T21:16:24.348Z,17.40
2019-06-20T21:18:53.121Z,17.40
2019-06-20T21:21:21.675Z,17.50
2019-06-20T21:23:50.319Z,17.40
2019-06-20T21:26:18.977Z,17.40
2019-06-20T21:28:47.873Z,17.30
2019-06-20T21:31:16.530Z,17.30
2019-06-20T21:33:45.287Z,17.40
2019-06-20T21:36:14.021Z,17.40
2019-06-20T21:38:42.617Z,17.50
2019-06-20T21:41:11.386Z,17.50
2019-06-20T21:43:39.945Z,17.50
2019-06-20T21:46:08.720Z,17.50
2019-06-20T21:48:37.476Z,17.50
2019-06-20T21:51:06.488Z,17.50
2019-06-20T21:53:35.162Z,17.50
2019-06-20T21:56:03.918Z,17.50
2019-06-20T21:58:32.640Z,17.50
2019-06-20T22:01:02.413Z,17.50
2019-06-20T22:03:31.397Z,17.50
2019-06-20T22:06:00.048Z,17.50
2019-06-20T22:08:28.680Z,17.50
2019-06-20T22:10:57.429Z,17.50
2019-06-20T22:13:26.149Z,17.40
2019-06-20T22:15:54.878Z,17.40
2019-06-20T22:18:23.613Z,17.30
2019-06-20T22:20:52.330Z,17.40
2019-06-20T22:23:21.000Z,17.40
2019-06-20T22:25:49.742Z,17.30
2019-06-20T22:28:18.533Z,17.30
2019-06-20T22:30:52.613Z,17.30
2019-06-20T22:33:21.357Z,17.20
2019-06-20T22:35:50.062Z,17.20
2019-06-20T22:38:18.794Z,17.20
2019-06-20T22:40:47.624Z,17.10
2019-06-20T22:43:16.438Z,17.10
2019-06-20T22:45:45.553Z,17.10
2019-06-20T22:48:14.614Z,17.10
2019-06-20T22:50:43.422Z,17.10
2019-06-20T22:53:12.142Z,17.10
2019-06-20T22:55:40.817Z,17.10
2019-06-20T22:58:09.963Z,17.10
2019-06-20T23:00:38.759Z,17.10
2019-06-20T23:03:07.438Z,17.10
2019-06-20T23:05:36.452Z,17.10
2019-06-20T23:08:05.262Z,17.10
2019-06-20T23:10:33.930Z,17.10
2019-06-20T23:13:02.505Z,17.20
2019-06-20T23:15:31.158Z,17.10
2019-06-20T23:17:59.907Z,17.20
2019-06-20T23:20:28.569Z,17.10
2019-06-20T23:22:57.289Z,17.10
2019-06-20T23:25:25.968Z,17.00
2019-06-20T23:27:54.675Z,17.00
2019-06-20T23:30:25.001Z,17.10
2019-06-20T23:32:53.744Z,17.10
2019-06-20T23:35:22.393Z,17.10
2019-06-20T23:37:51.113Z,17.10
2019-06-20T23:40:21.626Z,17.10
2019-06-20T23:42:50.365Z,17.10
2019-06-20T23:45:19.571Z,17.10
2019-06-20T23:47:48.253Z,17.10
2019-06-20T23:50:19.631Z,17.00
2019-06-20T23:52:57.773Z,17.00
2019-06-20T23:55:26.422Z,17.10
2019-06-20T23:57:55.014Z,17.10
